createdAt,value
2023-03-25T00:02:27.333Z,3.03
2023-03-25T00:04:56.314Z,2.42
2023-03-25T00:07:24.524Z,2.90
2023-03-25T00:09:52.654Z,2.50
2023-03-25T00:12:20.751Z,2.33
2023-03-25T00:14:54.816Z,2.65
2023-03-25T00:17:26.527Z,2.63
2023-03-25T00:19:55.528Z,2.83
2023-03-25T00:22:24.131Z,2.63
2023-03-25T00:24:52.219Z,2.85
2023-03-25T00:27:20.508Z,2.42
2023-03-25T00:29:48.575Z,2.40
2023-03-25T00:32:17.446Z,2.42
2023-03-25T00:34:48.225Z,2.40
2023-03-25T00:37:18.337Z,2.95
2023-03-25T00:39:46.849Z,2.38
2023-03-25T00:42:17.498Z,2.85
2023-03-25T00:44:45.791Z,2.22
2023-03-25T00:47:18.412Z,2.65
2023-03-25T00:49:47.970Z,2.58
2023-03-25T00:52:16.907Z,2.47
2023-03-25T00:54:46.008Z,2.67
2023-03-25T00:57:14.333Z,2.00
2023-03-25T00:59:42.520Z,2.50
2023-03-25T01:02:11.625Z,2.40
2023-03-25T01:04:42.323Z,2.88
2023-03-25T01:07:12.783Z,2.33
2023-03-25T01:09:41.700Z,3.08
2023-03-25T01:12:10.137Z,2.83
2023-03-25T01:14:38.251Z,2.72
2023-03-25T01:17:06.929Z,2.55
2023-03-25T01:19:35.055Z,2.75
2023-03-25T01:22:03.260Z,2.97
2023-03-25T01:24:32.864Z,2.58
2023-03-25T01:27:01.173Z,2.65
2023-03-25T01:29:30.692Z,2.25
2023-03-25T01:31:59.320Z,2.70
2023-03-25T01:34:27.401Z,2.28
2023-03-25T01:36:56.384Z,2.58
2023-03-25T01:39:24.974Z,2.25
2023-03-25T01:41:55.264Z,2.65
2023-03-25T01:45:00.884Z,2.95
2023-03-25T01:47:29.177Z,2.50
2023-03-25T01:49:57.329Z,2.72
2023-03-25T01:52:29.786Z,2.92
2023-03-25T01:55:00.929Z,2.80
2023-03-25T01:57:31.121Z,3.08
2023-03-25T02:00:09.723Z,2.72
2023-03-25T02:02:40.925Z,3.35
2023-03-25T02:05:14.143Z,3.50
2023-03-25T02:07:46.924Z,3.65
2023-03-25T02:10:16.218Z,4.45
2023-03-25T02:12:47.267Z,4.85
2023-03-25T02:15:18.056Z,4.97
2023-03-25T02:18:09.313Z,5.07
2023-03-25T02:21:13.196Z,4.80
2023-03-25T02:24:12.085Z,4.78
2023-03-25T02:27:28.296Z,4.65
2023-03-25T02:30:13.443Z,4.22
2023-03-25T02:33:01.897Z,3.28
2023-03-25T02:35:41.646Z,3.38
2023-03-25T02:38:36.746Z,3.30
2023-03-25T02:41:12.926Z,3.10
2023-03-25T02:43:45.686Z,2.95
2023-03-25T02:46:18.128Z,3.10
2023-03-25T02:48:53.814Z,3.17
2023-03-25T02:51:27.147Z,3.75
2023-03-25T02:53:59.897Z,2.88
2023-03-25T02:56:29.560Z,4.00
2023-03-25T02:58:58.612Z,3.90
2023-03-25T03:01:27.788Z,3.60
2023-03-25T03:03:57.487Z,4.72
2023-03-25T03:06:26.280Z,4.22
2023-03-25T03:09:16.352Z,4.25
2023-03-25T03:11:55.529Z,4.15
2023-03-25T03:14:35.370Z,4.15
2023-03-25T03:17:12.150Z,4.03
2023-03-25T03:19:46.434Z,4.25
2023-03-25T03:22:35.140Z,4.13
2023-03-25T03:25:12.359Z,4.18
2023-03-25T03:27:47.058Z,3.88
2023-03-25T03:30:19.830Z,4.53
2023-03-25T03:32:54.132Z,3.55
2023-03-25T03:35:27.664Z,3.92
2023-03-25T03:38:00.816Z,4.45
2023-03-25T03:40:32.225Z,4.50
2023-03-25T03:43:04.661Z,4.03
2023-03-25T03:45:37.428Z,3.83
2023-03-25T03:48:10.382Z,3.28
2023-03-25T03:50:43.045Z,4.25
2023-03-25T03:53:16.655Z,4.15
2023-03-25T03:55:52.198Z,3.97
2023-03-25T03:58:24.182Z,4.13
2023-03-25T04:00:59.327Z,4.43
2023-03-25T04:03:35.010Z,3.47
2023-03-25T04:06:09.794Z,3.92
2023-03-25T04:08:44.275Z,3.97
2023-03-25T04:11:20.289Z,3.92
2023-03-25T04:13:53.347Z,4.00
2023-03-25T04:16:21.732Z,4.00
2023-03-25T04:18:53.657Z,3.90
2023-03-25T04:21:22.143Z,4.00
2023-03-25T04:23:51.719Z,3.35
2023-03-25T04:26:21.802Z,4.28
2023-03-25T04:28:49.833Z,3.92
2023-03-25T04:31:18.421Z,3.50
2023-03-25T04:33:48.630Z,4.03
2023-03-25T04:36:17.944Z,3.28
2023-03-25T04:38:46.845Z,3.13
2023-03-25T04:41:15.059Z,3.10
2023-03-25T04:43:45.515Z,4.05
2023-03-25T04:46:15.924Z,3.28
2023-03-25T04:48:45.148Z,3.65
2023-03-25T04:51:13.830Z,3.33
2023-03-25T04:53:42.966Z,4.00
2023-03-25T04:56:16.783Z,3.65
2023-03-25T04:58:46.690Z,3.30
2023-03-25T05:01:24.015Z,3.40
2023-03-25T05:03:52.182Z,3.35
2023-03-25T05:06:20.285Z,3.15
2023-03-25T05:08:48.294Z,3.67
2023-03-25T05:11:16.324Z,3.30
2023-03-25T05:13:44.324Z,3.50
2023-03-25T05:16:13.771Z,3.25
2023-03-25T05:18:41.852Z,2.95
2023-03-25T05:21:11.362Z,3.67
2023-03-25T05:23:39.707Z,3.67
2023-03-25T05:26:08.007Z,3.28
2023-03-25T05:28:36.690Z,3.53
2023-03-25T05:31:08.336Z,4.10
2023-03-25T05:33:43.367Z,4.53
2023-03-25T05:36:12.400Z,3.97
2023-03-25T05:38:41.953Z,4.03
2023-03-25T05:41:12.157Z,3.65
2023-03-25T05:43:40.215Z,4.22
2023-03-25T05:46:08.473Z,3.72
2023-03-25T05:48:37.919Z,3.70
2023-03-25T05:51:13.542Z,3.47
2023-03-25T05:53:43.663Z,3.90
2023-03-25T05:56:11.897Z,3.40
2023-03-25T05:58:40.160Z,3.22
2023-03-25T06:01:17.023Z,3.75
2023-03-25T06:03:55.539Z,3.55
2023-03-25T06:06:25.884Z,3.05
2023-03-25T06:08:54.039Z,3.20
2023-03-25T06:11:22.313Z,3.60
2023-03-25T06:13:50.873Z,4.40
2023-03-25T06:16:20.746Z,3.92
2023-03-25T06:18:56.523Z,4.75
2023-03-25T06:21:27.620Z,3.88
2023-03-25T06:23:56.071Z,3.97
2023-03-25T06:26:25.318Z,3.83
2023-03-25T06:28:54.754Z,4.35
2023-03-25T06:31:26.572Z,3.90
2023-03-25T06:33:55.985Z,4.10
2023-03-25T06:36:26.036Z,3.58
2023-03-25T06:38:54.931Z,3.80
2023-03-25T06:41:25.179Z,3.88
2023-03-25T06:44:09.820Z,4.35
2023-03-25T06:47:02.546Z,3.38
2023-03-25T06:49:51.419Z,3.67
2023-03-25T06:52:20.840Z,3.78
2023-03-25T06:54:48.931Z,3.58
2023-03-25T06:57:17.130Z,3.75
2023-03-25T06:59:45.561Z,3.45
2023-03-25T07:02:14.548Z,3.50
2023-03-25T07:04:42.644Z,3.35
2023-03-25T07:07:11.059Z,3.10
2023-03-25T07:09:40.457Z,3.25
2023-03-25T07:12:09.436Z,3.47
2023-03-25T07:14:37.515Z,4.05
2023-03-25T07:17:06.316Z,3.50
2023-03-25T07:19:34.319Z,3.30
2023-03-25T07:22:02.359Z,3.38
2023-03-25T07:24:30.415Z,2.92
2023-03-25T07:26:59.776Z,2.88
2023-03-25T07:29:29.270Z,2.50
2023-03-25T07:31:57.318Z,2.90
2023-03-25T07:34:26.052Z,3.10
2023-03-25T07:36:54.083Z,2.92
2023-03-25T07:39:25.184Z,2.42
2023-03-25T07:41:53.204Z,2.53
2023-03-25T07:44:31.015Z,2.47
2023-03-25T07:46:59.058Z,2.55
2023-03-25T07:49:27.046Z,2.53
2023-03-25T07:51:55.064Z,3.72
2023-03-25T07:54:24.418Z,3.58
2023-03-25T07:56:54.548Z,3.05
2023-03-25T07:59:22.604Z,3.35
2023-03-25T08:01:52.046Z,3.40
2023-03-25T08:04:20.075Z,3.35
2023-03-25T08:06:48.096Z,3.38
2023-03-25T08:09:16.124Z,3.50
2023-03-25T08:11:44.215Z,3.58
2023-03-25T08:14:12.204Z,2.72
2023-03-25T08:16:40.687Z,3.20
2023-03-25T08:19:11.059Z,3.70
2023-03-25T08:21:39.284Z,3.85
2023-03-25T08:24:07.675Z,3.00
2023-03-25T08:26:36.632Z,3.53
2023-03-25T08:29:05.016Z,4.13
2023-03-25T08:31:33.947Z,3.72
2023-03-25T08:34:03.172Z,3.85
2023-03-25T08:36:33.462Z,3.45
2023-03-25T08:39:07.802Z,3.88
2023-03-25T08:41:37.852Z,3.30
2023-03-25T08:44:06.177Z,2.83
2023-03-25T08:46:40.617Z,2.90
2023-03-25T08:49:13.003Z,2.13
2023-03-25T08:51:42.472Z,2.83
2023-03-25T08:54:10.783Z,3.10
2023-03-25T08:56:39.272Z,3.47
2023-03-25T08:59:07.402Z,3.30
2023-03-25T09:01:35.668Z,2.90
2023-03-25T09:04:03.775Z,3.08
2023-03-25T09:06:47.862Z,3.00
2023-03-25T09:09:18.133Z,3.55
2023-03-25T09:11:46.300Z,2.63
2023-03-25T09:14:14.393Z,2.72
2023-03-25T09:16:44.496Z,3.30
2023-03-25T09:19:12.599Z,2.75
2023-03-25T09:21:40.767Z,2.50
2023-03-25T09:24:09.991Z,1.88
2023-03-25T09:26:39.594Z,1.70
2023-03-25T09:29:07.772Z,1.52
2023-03-25T09:31:36.297Z,1.60
2023-03-25T09:34:04.688Z,1.60
2023-03-25T09:36:32.940Z,1.80
2023-03-25T09:39:01.379Z,2.05
2023-03-25T09:41:55.299Z,2.45
2023-03-25T09:44:28.550Z,2.58
2023-03-25T09:47:00.761Z,3.03
2023-03-25T09:49:38.875Z,3.03
2023-03-25T09:52:13.200Z,2.88
2023-03-25T09:54:52.956Z,2.90
2023-03-25T09:57:27.504Z,2.78
2023-03-25T09:59:57.638Z,3.10
2023-03-25T10:02:41.368Z,3.17
2023-03-25T10:05:30.425Z,3.58
2023-03-25T10:08:09.923Z,3.65
2023-03-25T10:10:44.834Z,3.28
2023-03-25T10:13:23.161Z,3.60
2023-03-25T10:15:57.733Z,3.65
2023-03-25T10:18:40.967Z,3.25
2023-03-25T10:21:16.436Z,2.88
2023-03-25T10:23:50.775Z,3.00
2023-03-25T10:26:22.937Z,2.92
2023-03-25T10:28:56.873Z,3.28
2023-03-25T10:31:28.362Z,2.90
2023-03-25T10:33:59.819Z,2.92
2023-03-25T10:36:34.150Z,2.92
2023-03-25T10:39:04.601Z,2.88
2023-03-25T10:41:37.343Z,3.13
2023-03-25T10:44:11.845Z,2.28
2023-03-25T10:46:47.558Z,2.90
2023-03-25T10:49:18.504Z,3.30
2023-03-25T10:51:48.232Z,2.17
2023-03-25T10:54:17.699Z,1.30
2023-03-25T10:56:49.335Z,0.80
2023-03-25T10:59:25.145Z,1.15
2023-03-25T11:01:54.694Z,1.02
2023-03-25T11:04:25.172Z,1.52
2023-03-25T11:06:57.540Z,1.58
2023-03-25T11:09:28.139Z,1.58
2023-03-25T11:11:56.248Z,2.58
2023-03-25T11:14:27.595Z,2.47
2023-03-25T11:16:57.818Z,2.20
2023-03-25T11:19:29.316Z,2.08
2023-03-25T11:22:01.933Z,2.38
2023-03-25T11:24:33.749Z,2.50
2023-03-25T11:27:02.864Z,2.55
2023-03-25T11:29:33.146Z,2.00
2023-03-25T11:32:08.308Z,2.47
2023-03-25T11:34:42.148Z,1.88
2023-03-25T11:37:18.200Z,1.80
2023-03-25T11:39:51.610Z,2.25
2023-03-25T11:42:32.208Z,2.20
2023-03-25T11:45:03.590Z,1.55
2023-03-25T11:47:34.684Z,1.98
2023-03-25T11:50:03.322Z,2.05
2023-03-25T11:52:40.600Z,2.08
2023-03-25T11:55:18.913Z,2.00
2023-03-25T11:57:48.996Z,2.30
2023-03-25T12:00:34.135Z,2.95
2023-03-25T12:03:06.593Z,1.63
2023-03-25T12:05:37.512Z,1.75
2023-03-25T12:08:15.237Z,1.80
2023-03-25T12:11:04.235Z,2.80
2023-03-25T12:14:09.368Z,2.08
2023-03-25T12:16:54.241Z,2.58
2023-03-25T12:19:31.195Z,2.45
2023-03-25T12:22:09.439Z,1.90
2023-03-25T12:24:53.501Z,2.45
2023-03-25T12:27:34.815Z,2.45
2023-03-25T12:30:19.028Z,3.22
2023-03-25T12:32:55.725Z,3.15
2023-03-25T12:35:32.377Z,3.13
2023-03-25T12:38:18.557Z,3.33
2023-03-25T12:41:01.699Z,2.35
2023-03-25T12:43:39.982Z,2.05
2023-03-25T12:46:20.711Z,1.95
2023-03-25T12:49:05.213Z,2.03
2023-03-25T12:51:47.596Z,1.77
2023-03-25T12:54:32.452Z,2.45
2023-03-25T12:57:14.450Z,2.47
2023-03-25T13:00:02.117Z,2.25
2023-03-25T13:02:50.201Z,2.53
2023-03-25T13:05:24.824Z,2.95
2023-03-25T13:07:58.397Z,3.00
2023-03-25T13:10:31.636Z,2.20
2023-03-25T13:13:01.595Z,2.70
2023-03-25T13:15:34.754Z,2.80
2023-03-25T13:18:07.528Z,3.10
2023-03-25T13:20:42.607Z,2.33
2023-03-25T13:23:17.722Z,3.10
2023-03-25T13:25:53.147Z,3.63
2023-03-25T13:28:25.613Z,2.42
2023-03-25T13:30:56.556Z,2.50
2023-03-25T13:33:28.985Z,2.58
2023-03-25T13:36:03.878Z,2.47
2023-03-25T13:38:35.304Z,2.63
2023-03-25T13:41:17.674Z,2.90
2023-03-25T13:43:55.443Z,2.33
2023-03-25T13:46:28.827Z,2.75
2023-03-25T13:49:00.501Z,2.35
2023-03-25T13:51:30.502Z,2.65
2023-03-25T13:54:03.007Z,2.70
2023-03-25T13:57:16.041Z,2.80
2023-03-25T14:00:24.967Z,2.50
2023-03-25T14:03:22.379Z,2.45
2023-03-25T14:06:29.543Z,2.30
2023-03-25T14:09:35.111Z,2.53
2023-03-25T14:12:08.347Z,2.40
2023-03-25T14:14:43.009Z,2.70
2023-03-25T14:17:13.332Z,2.00
2023-03-25T14:19:49.805Z,1.88
2023-03-25T14:22:19.922Z,1.85
2023-03-25T14:24:51.530Z,1.15
2023-03-25T14:27:24.949Z,1.98
2023-03-25T14:29:56.836Z,1.63
2023-03-25T14:32:34.960Z,1.75
2023-03-25T14:35:41.398Z,1.98
2023-03-25T14:38:47.238Z,2.00
2023-03-25T14:41:16.886Z,2.40
2023-03-25T14:43:47.262Z,2.08
2023-03-25T14:46:23.647Z,2.15
2023-03-25T14:48:55.018Z,2.00
2023-03-25T14:51:44.423Z,2.22
2023-03-25T14:54:22.550Z,2.20
2023-03-25T14:56:57.592Z,1.63
2023-03-25T14:59:31.282Z,1.60
2023-03-25T15:02:07.118Z,1.80
2023-03-25T15:04:37.935Z,2.00
2023-03-25T15:07:12.694Z,1.63
2023-03-25T15:09:47.929Z,2.03
2023-03-25T15:12:20.383Z,1.90
2023-03-25T15:14:51.247Z,1.95
2023-03-25T15:17:44.913Z,1.85
2023-03-25T15:20:28.776Z,1.92
2023-03-25T15:23:34.515Z,1.77
2023-03-25T15:26:04.910Z,1.60
2023-03-25T15:28:58.425Z,1.40
2023-03-25T15:31:38.407Z,1.10
2023-03-25T15:34:37.335Z,1.40
2023-03-25T15:37:46.205Z,1.70
2023-03-25T15:40:32.042Z,1.50
2023-03-25T15:43:44.806Z,1.92
2023-03-25T15:46:41.371Z,1.35
2023-03-25T15:49:23.193Z,1.30
2023-03-25T15:52:08.776Z,1.85
2023-03-25T15:54:40.550Z,1.45
2023-03-25T15:57:18.402Z,1.55
2023-03-25T15:59:52.431Z,1.73
2023-03-25T16:02:29.505Z,1.83
2023-03-25T16:04:58.158Z,2.13
2023-03-25T16:07:30.806Z,1.92
2023-03-25T16:10:06.929Z,2.25
2023-03-25T16:12:34.993Z,2.08
2023-03-25T16:15:07.106Z,2.10
2023-03-25T16:17:36.819Z,2.17
2023-03-25T16:20:07.741Z,2.33
2023-03-25T16:22:37.764Z,2.10
2023-03-25T16:25:09.326Z,2.22
2023-03-25T16:27:42.942Z,2.15
2023-03-25T16:30:22.672Z,1.73
2023-03-25T16:32:52.495Z,2.10
2023-03-25T16:35:26.163Z,1.80
2023-03-25T16:37:57.269Z,1.95
2023-03-25T16:40:29.616Z,2.10
2023-03-25T16:43:05.671Z,1.80
2023-03-25T16:45:35.284Z,2.20
2023-03-25T16:48:09.663Z,2.20
2023-03-25T16:50:39.109Z,1.88
2023-03-25T16:53:07.887Z,1.70
2023-03-25T16:55:47.227Z,2.10
2023-03-25T16:58:18.560Z,2.38
2023-03-25T17:00:50.092Z,1.67
2023-03-25T17:03:39.369Z,2.45
2023-03-25T17:06:12.916Z,1.83
2023-03-25T17:08:41.036Z,1.98
2023-03-25T17:11:10.180Z,1.95
2023-03-25T17:13:43.022Z,2.30
2023-03-25T17:16:11.782Z,2.17
2023-03-25T17:18:41.354Z,2.30
2023-03-25T17:21:12.438Z,2.05
2023-03-25T17:23:46.322Z,1.65
2023-03-25T17:26:17.498Z,2.20
2023-03-25T17:28:58.252Z,1.80
2023-03-25T17:31:29.726Z,1.65
2023-03-25T17:34:06.532Z,1.75
2023-03-25T17:36:37.837Z,2.10
2023-03-25T17:39:14.310Z,2.35
2023-03-25T17:41:42.424Z,2.88
2023-03-25T17:44:16.032Z,2.25
2023-03-25T17:46:44.508Z,2.70
2023-03-25T17:49:16.810Z,3.33
2023-03-25T17:51:46.393Z,2.50
2023-03-25T17:54:14.983Z,2.17
2023-03-25T17:56:43.735Z,3.13
2023-03-25T17:59:16.728Z,2.90
2023-03-25T18:01:45.357Z,3.00
2023-03-25T18:04:15.607Z,3.40
2023-03-25T18:06:44.315Z,2.40
2023-03-25T18:09:17.203Z,3.08
2023-03-25T18:11:45.912Z,3.20
2023-03-25T18:14:14.065Z,3.00
2023-03-25T18:16:42.239Z,3.50
2023-03-25T18:19:14.547Z,3.00
2023-03-25T18:21:44.239Z,2.95
2023-03-25T18:24:13.489Z,2.80
2023-03-25T18:26:42.147Z,3.20
2023-03-25T18:29:12.500Z,2.95
2023-03-25T18:31:40.607Z,4.05
2023-03-25T18:34:09.788Z,3.85
2023-03-25T18:36:38.705Z,3.75
2023-03-25T18:39:13.728Z,3.85
2023-03-25T18:41:42.382Z,3.00
2023-03-25T18:44:11.337Z,3.58
2023-03-25T18:46:40.090Z,3.88
2023-03-25T18:49:13.946Z,3.22
2023-03-25T18:51:42.782Z,3.75
2023-03-25T18:54:12.494Z,4.10
2023-03-25T18:56:41.618Z,3.97
2023-03-25T18:59:09.931Z,3.65
2023-03-25T19:01:38.536Z,4.03
2023-03-25T19:04:06.796Z,3.92
2023-03-25T19:06:34.930Z,3.58
2023-03-25T19:09:03.719Z,3.42
2023-03-25T19:11:33.863Z,3.70
2023-03-25T19:14:01.957Z,3.50
2023-03-25T19:16:30.105Z,3.88
2023-03-25T19:18:58.116Z,4.13
2023-03-25T19:21:26.184Z,3.90
2023-03-25T19:23:54.248Z,3.53
2023-03-25T19:26:22.257Z,3.60
2023-03-25T19:28:51.761Z,3.80
2023-03-25T19:31:19.776Z,4.10
2023-03-25T19:33:47.792Z,4.18
2023-03-25T19:36:19.030Z,4.00
2023-03-25T19:38:47.290Z,4.70
2023-03-25T19:41:16.836Z,3.47
2023-03-25T19:43:44.996Z,3.90
2023-03-25T19:46:14.939Z,3.88
2023-03-25T19:48:42.973Z,3.22
2023-03-25T19:51:10.993Z,3.33
2023-03-25T19:53:39.028Z,3.45
2023-03-25T19:56:07.359Z,3.08
2023-03-25T19:58:35.587Z,3.95
2023-03-25T20:01:03.774Z,2.67
2023-03-25T20:03:35.595Z,3.08
2023-03-25T20:06:06.139Z,3.20
2023-03-25T20:08:34.454Z,2.35
2023-03-25T20:11:09.533Z,2.88
2023-03-25T20:13:37.673Z,3.13
2023-03-25T20:16:06.708Z,3.35
2023-03-25T20:18:36.219Z,3.95
2023-03-25T20:21:08.073Z,3.08
2023-03-25T20:23:36.131Z,3.13
2023-03-25T20:26:04.287Z,3.38
2023-03-25T20:28:32.415Z,3.15
2023-03-25T20:31:00.588Z,3.17
2023-03-25T20:33:28.721Z,3.67
2023-03-25T20:35:58.158Z,3.05
2023-03-25T20:38:26.251Z,3.17
2023-03-25T20:40:55.604Z,3.70
2023-03-25T20:43:23.633Z,3.03
2023-03-25T20:45:55.577Z,3.40
2023-03-25T20:48:23.691Z,3.10
2023-03-25T20:50:58.776Z,3.17
2023-03-25T20:53:29.115Z,3.53
2023-03-25T20:55:57.917Z,3.38
2023-03-25T20:58:26.849Z,3.22
2023-03-25T21:00:58.898Z,3.58
2023-03-25T21:03:27.809Z,3.17
2023-03-25T21:05:58.020Z,3.45
2023-03-25T21:11:23.221Z,3.42
2023-03-25T21:13:51.651Z,3.92
2023-03-25T21:16:20.283Z,2.92
2023-03-25T21:18:50.257Z,3.35
2023-03-25T21:21:19.929Z,3.03
2023-03-25T21:23:49.308Z,2.83
2023-03-25T21:26:17.750Z,3.05
2023-03-25T21:28:48.657Z,2.88
2023-03-25T21:31:21.998Z,2.25
2023-03-25T21:33:52.517Z,3.00
2023-03-25T21:36:24.436Z,3.17
2023-03-25T21:38:56.654Z,3.55
2023-03-25T21:41:25.484Z,3.33
2023-03-25T21:43:55.424Z,2.78
2023-03-25T21:46:27.580Z,3.00
2023-03-25T21:48:58.699Z,3.20
2023-03-25T21:51:30.391Z,2.78
2023-03-25T21:54:00.459Z,2.85
2023-03-25T21:56:31.083Z,1.98
2023-03-25T21:59:01.975Z,2.50
2023-03-25T22:01:32.452Z,3.15
2023-03-25T22:04:02.499Z,2.63
2023-03-25T22:06:33.465Z,2.38
2023-03-25T22:09:05.576Z,2.70
2023-03-25T22:11:37.516Z,2.88
2023-03-25T22:14:08.089Z,2.33
2023-03-25T22:16:37.010Z,2.45
2023-03-25T22:19:05.839Z,2.70
2023-03-25T22:21:37.416Z,2.92
2023-03-25T22:24:08.390Z,3.70
2023-03-25T22:26:39.248Z,3.70
2023-03-25T22:29:10.445Z,2.78
2023-03-25T22:31:41.149Z,3.22
2023-03-25T22:34:15.591Z,3.92
2023-03-25T22:36:50.162Z,3.58
2023-03-25T22:39:19.379Z,3.20
2023-03-25T22:41:47.930Z,3.83
2023-03-25T22:44:18.195Z,4.13
2023-03-25T22:46:46.837Z,3.80
2023-03-25T22:49:15.478Z,3.10
2023-03-25T22:51:44.068Z,3.47
2023-03-25T22:54:12.398Z,3.60
2023-03-25T22:56:40.907Z,3.15
2023-03-25T22:59:09.712Z,3.55
2023-03-25T23:01:39.610Z,3.85
2023-03-25T23:04:08.373Z,3.92
2023-03-25T23:06:36.993Z,3.30
2023-03-25T23:09:08.485Z,3.67
2023-03-25T23:11:37.979Z,2.70
2023-03-25T23:14:08.589Z,3.38
2023-03-25T23:16:38.999Z,3.53
2023-03-25T23:19:10.020Z,3.90
2023-03-25T23:21:38.774Z,4.22
2023-03-25T23:24:07.770Z,3.22
2023-03-25T23:26:39.004Z,3.60
2023-03-25T23:29:09.633Z,4.60
2023-03-25T23:31:41.432Z,3.83
2023-03-25T23:34:13.517Z,3.70
2023-03-25T23:36:41.935Z,3.70
2023-03-25T23:39:12.498Z,4.25
2023-03-25T23:41:40.935Z,3.65
2023-03-25T23:44:09.472Z,3.58
2023-03-25T23:46:37.861Z,3.63
2023-03-25T23:49:06.395Z,3.70
2023-03-25T23:51:37.785Z,4.10
2023-03-25T23:54:07.664Z,4.78
2023-03-25T23:56:36.469Z,4.25
2023-03-25T23:59:06.513Z,4.18
